createdAt,value
2018-09-03T00:02:26.862Z,6.03
2018-09-03T00:04:55.270Z,6.27
2018-09-03T00:07:23.654Z,6.33
2018-09-03T00:09:51.939Z,5.73
2018-09-03T00:12:20.398Z,5.90
2018-09-03T00:14:48.692Z,5.70
2018-09-03T00:17:17.108Z,9.13
2018-09-03T00:19:45.490Z,4.90
2018-09-03T00:22:14.027Z,5.83
2018-09-03T00:24:42.385Z,5.80
2018-09-03T00:27:10.718Z,6.40
2018-09-03T00:29:39.214Z,6.13
2018-09-03T00:32:12.991Z,7.67
2018-09-03T00:34:46.908Z,8.53
2018-09-03T00:37:20.407Z,6.77
2018-09-03T00:39:54.005Z,9.07
2018-09-03T00:42:27.671Z,7.50
2018-09-03T00:45:01.556Z,10.43
2018-09-03T00:47:29.911Z,9.57
2018-09-03T00:49:58.258Z,6.90
2018-09-03T00:52:26.608Z,8.43
2018-09-03T00:54:54.935Z,7.80
2018-09-03T00:57:23.315Z,8.23
2018-09-03T00:59:52.758Z,11.60
2018-09-03T01:02:21.117Z,6.30
2018-09-03T01:04:49.416Z,10.37
2018-09-03T01:07:17.767Z,8.50
2018-09-03T01:09:46.144Z,7.90
2018-09-03T01:12:14.376Z,13.20
2018-09-03T01:14:42.704Z,9.10
2018-09-03T01:17:10.970Z,7.50
2018-09-03T01:19:39.226Z,8.37
2018-09-03T01:22:07.605Z,8.47
2018-09-03T01:24:35.890Z,9.10
2018-09-03T01:27:04.449Z,15.87
2018-09-03T01:29:32.859Z,8.00
2018-09-03T01:32:01.224Z,9.57
2018-09-03T01:34:29.573Z,10.47
2018-09-03T01:36:57.813Z,11.57
2018-09-03T01:39:26.062Z,10.50
2018-09-03T01:41:54.434Z,11.70
2018-09-03T01:44:22.795Z,11.63
2018-09-03T01:46:51.176Z,8.70
2018-09-03T01:49:19.480Z,11.03
2018-09-03T01:51:47.826Z,9.30
2018-09-03T01:54:16.310Z,7.93
2018-09-03T01:56:44.606Z,8.17
2018-09-03T01:59:12.913Z,10.30
2018-09-03T02:01:41.154Z,8.90
2018-09-03T02:04:09.571Z,7.43
2018-09-03T02:06:38.018Z,9.60
2018-09-03T02:09:10.115Z,10.37
2018-09-03T02:11:38.637Z,10.23
2018-09-03T02:14:10.186Z,10.93
2018-09-03T02:16:39.303Z,10.07
2018-09-03T02:19:08.340Z,9.53
2018-09-03T02:21:37.197Z,12.87
2018-09-03T02:24:05.541Z,12.53
2018-09-03T02:26:33.947Z,10.00
2018-09-03T02:29:02.051Z,9.63
2018-09-03T02:31:30.075Z,15.27
2018-09-03T02:33:58.574Z,8.10
2018-09-03T02:36:27.133Z,16.90
2018-09-03T02:38:55.423Z,10.57
2018-09-03T02:41:23.775Z,7.17
2018-09-03T02:43:52.065Z,10.33
2018-09-03T02:46:20.319Z,10.83
2018-09-03T02:48:48.708Z,10.00
2018-09-03T02:53:51.696Z,9.57
2018-09-03T02:56:20.190Z,10.97
2018-09-03T02:58:48.576Z,12.50
2018-09-03T03:01:16.639Z,11.03
2018-09-03T03:03:44.991Z,13.27
2018-09-03T03:06:13.359Z,13.33
2018-09-03T03:08:42.831Z,9.73
2018-09-03T03:11:11.090Z,11.20
2018-09-03T03:13:39.463Z,9.07
2018-09-03T03:16:07.863Z,13.03
2018-09-03T03:18:36.125Z,11.20
2018-09-03T03:21:04.549Z,15.97
2018-09-03T03:23:32.963Z,11.07
2018-09-03T03:26:00.957Z,13.90
2018-09-03T03:28:29.223Z,12.03
2018-09-03T03:30:57.629Z,14.13
2018-09-03T03:33:25.978Z,12.70
2018-09-03T03:35:54.293Z,15.00
2018-09-03T03:38:22.559Z,14.77
2018-09-03T03:40:50.738Z,14.03
2018-09-03T03:43:19.013Z,11.57
2018-09-03T03:45:47.255Z,12.60
2018-09-03T03:48:15.653Z,15.20
2018-09-03T03:50:43.938Z,14.27
2018-09-03T03:53:12.233Z,14.43
2018-09-03T03:55:40.551Z,10.33
2018-09-03T03:58:08.927Z,12.33
2018-09-03T04:00:37.259Z,11.53
2018-09-03T04:03:05.651Z,12.60
2018-09-03T04:05:33.999Z,11.77
2018-09-03T04:08:02.384Z,14.80
2018-09-03T04:10:30.734Z,11.53
2018-09-03T04:13:03.313Z,14.63
2018-09-03T04:15:31.811Z,15.90
2018-09-03T04:18:00.430Z,11.20
2018-09-03T04:20:28.727Z,12.90
2018-09-03T04:22:57.184Z,10.70
2018-09-03T04:25:25.476Z,14.50
2018-09-03T04:27:54.689Z,13.80
2018-09-03T04:30:23.614Z,12.23
2018-09-03T04:32:52.057Z,12.17
2018-09-03T04:35:20.532Z,12.67
2018-09-03T04:37:48.920Z,13.43
2018-09-03T04:40:17.443Z,12.00
2018-09-03T04:42:45.812Z,14.53
2018-09-03T04:45:14.149Z,12.63
2018-09-03T04:47:42.775Z,13.47
2018-09-03T04:50:11.461Z,13.63
2018-09-03T04:52:40.111Z,11.47
2018-09-03T04:55:08.398Z,12.90
2018-09-03T04:57:36.954Z,11.90
2018-09-03T05:00:05.600Z,11.50
2018-09-03T05:02:33.866Z,10.17
2018-09-03T05:05:02.368Z,15.00
2018-09-03T05:07:30.606Z,16.07
2018-09-03T05:09:59.357Z,12.83
2018-09-03T05:12:34.420Z,13.00
2018-09-03T05:15:02.747Z,15.90
2018-09-03T05:17:31.657Z,13.40
2018-09-03T05:20:00.056Z,18.03
2018-09-03T05:22:28.479Z,15.50
2018-09-03T05:24:56.969Z,14.33
2018-09-03T05:27:25.729Z,12.53
2018-09-03T05:29:54.105Z,14.67
2018-09-03T05:32:22.594Z,14.33
2018-09-03T05:34:50.857Z,14.30
2018-09-03T05:37:19.317Z,17.00
2018-09-03T05:39:47.643Z,21.20
2018-09-03T05:42:16.134Z,14.47
2018-09-03T05:44:44.698Z,14.20
2018-09-03T05:47:13.025Z,14.33
2018-09-03T05:49:41.438Z,15.07
2018-09-03T05:52:09.769Z,19.17
2018-09-03T05:54:38.392Z,18.60
2018-09-03T05:57:07.017Z,15.77
2018-09-03T05:59:36.327Z,19.63
2018-09-03T06:02:04.780Z,14.20
2018-09-03T06:04:33.172Z,16.27
2018-09-03T06:07:01.394Z,16.17
2018-09-03T06:09:29.741Z,16.63
2018-09-03T06:11:58.052Z,17.73
2018-09-03T06:14:26.665Z,17.93
2018-09-03T06:16:54.891Z,22.23
2018-09-03T06:19:23.351Z,16.80
2018-09-03T06:21:52.095Z,15.27
2018-09-03T06:24:20.326Z,23.37
2018-09-03T06:26:48.553Z,14.83
2018-09-03T06:29:16.811Z,22.60
2018-09-03T06:31:45.158Z,22.30
2018-09-03T06:34:13.643Z,17.80
2018-09-03T06:36:42.008Z,21.97
2018-09-03T06:39:10.847Z,14.37
2018-09-03T06:41:39.211Z,20.13
2018-09-03T06:44:07.809Z,16.27
2018-09-03T06:46:36.262Z,20.20
2018-09-03T06:51:55.374Z,18.87
2018-09-03T06:54:23.911Z,23.00
2018-09-03T06:56:52.304Z,20.07
2018-09-03T06:59:20.610Z,17.83
2018-09-03T07:01:49.232Z,20.60
2018-09-03T07:04:17.676Z,18.93
2018-09-03T07:06:46.141Z,15.77
2018-09-03T07:09:14.495Z,17.10
2018-09-03T07:11:42.786Z,19.33
2018-09-03T07:14:11.082Z,17.63
2018-09-03T07:16:39.525Z,13.17
2018-09-03T07:19:07.880Z,17.13
2018-09-03T07:21:36.202Z,17.47
2018-09-03T07:24:04.561Z,16.83
2018-09-03T07:26:33.078Z,22.57
2018-09-03T07:29:01.544Z,18.63
2018-09-03T07:31:29.941Z,21.27
2018-09-03T07:33:58.256Z,19.70
2018-09-03T07:36:26.630Z,17.60
2018-09-03T07:38:55.226Z,20.93
2018-09-03T07:41:23.635Z,19.20
2018-09-03T07:43:51.884Z,18.50
2018-09-03T07:46:20.297Z,22.10
2018-09-03T07:48:48.746Z,20.33
2018-09-03T07:51:17.328Z,15.57
2018-09-03T07:53:45.661Z,19.30
2018-09-03T07:56:14.019Z,26.37
2018-09-03T07:58:42.344Z,17.83
2018-09-03T08:01:10.888Z,25.37
2018-09-03T08:03:39.302Z,19.83
2018-09-03T08:06:07.734Z,19.17
2018-09-03T08:08:36.122Z,16.00
2018-09-03T08:11:04.577Z,23.20
2018-09-03T08:13:39.190Z,18.50
2018-09-03T08:16:07.947Z,22.43
2018-09-03T08:18:36.484Z,27.70
2018-09-03T08:21:04.979Z,22.40
2018-09-03T08:23:33.446Z,20.33
2018-09-03T08:26:01.967Z,18.53
2018-09-03T08:28:30.297Z,24.00
2018-09-03T08:30:58.802Z,24.57
2018-09-03T08:33:27.134Z,23.33
2018-09-03T08:35:55.598Z,24.83
2018-09-03T08:38:23.970Z,27.63
2018-09-03T08:40:52.498Z,20.47
2018-09-03T08:43:20.822Z,26.77
2018-09-03T08:45:49.159Z,20.20
2018-09-03T08:48:17.427Z,27.87
2018-09-03T08:50:45.904Z,24.93
2018-09-03T08:53:14.384Z,21.20
2018-09-03T08:55:42.810Z,26.20
2018-09-03T08:58:11.150Z,24.00
2018-09-03T09:00:39.677Z,20.00
2018-09-03T09:03:13.862Z,20.17
2018-09-03T09:05:42.235Z,21.83
2018-09-03T09:08:10.650Z,19.60
2018-09-03T09:10:38.951Z,21.07
2018-09-03T09:13:07.249Z,17.97
2018-09-03T09:15:35.628Z,23.67
2018-09-03T09:18:04.012Z,21.40
2018-09-03T09:20:32.461Z,18.00
2018-09-03T09:23:00.976Z,22.00
2018-09-03T09:25:29.638Z,16.40
2018-09-03T09:27:57.993Z,17.57
2018-09-03T09:30:26.832Z,15.30
2018-09-03T09:32:55.325Z,21.97
2018-09-03T09:35:23.550Z,16.40
2018-09-03T09:37:51.943Z,22.50
2018-09-03T09:40:20.442Z,18.13
2018-09-03T09:42:51.247Z,20.67
2018-09-03T09:45:19.678Z,21.60
2018-09-03T09:47:48.169Z,18.97
2018-09-03T09:50:16.666Z,16.70
2018-09-03T09:52:44.976Z,16.40
2018-09-03T09:55:13.523Z,16.20
2018-09-03T09:57:41.874Z,19.57
2018-09-03T10:00:11.277Z,18.30
2018-09-03T10:02:40.470Z,13.33
2018-09-03T10:05:08.905Z,17.40
2018-09-03T10:07:37.296Z,16.63
2018-09-03T10:10:05.951Z,18.73
2018-09-03T10:12:34.346Z,13.50
2018-09-03T10:15:02.957Z,13.67
2018-09-03T10:17:31.880Z,16.63
2018-09-03T10:20:00.703Z,13.87
2018-09-03T10:22:29.092Z,15.93
2018-09-03T10:24:57.578Z,17.00
2018-09-03T10:27:26.040Z,13.20
2018-09-03T10:29:54.471Z,16.07
2018-09-03T10:32:23.423Z,14.30
2018-09-03T10:34:51.909Z,12.50
2018-09-03T10:37:20.495Z,16.37
2018-09-03T10:39:48.860Z,13.53
2018-09-03T10:42:22.920Z,12.97
2018-09-03T10:44:51.260Z,15.57
2018-09-03T10:47:19.813Z,16.47
2018-09-03T10:49:48.101Z,19.90
2018-09-03T10:52:16.563Z,21.30
2018-09-03T10:54:44.989Z,14.67
2018-09-03T10:57:13.427Z,14.80
2018-09-03T10:59:42.462Z,16.37
2018-09-03T11:02:10.859Z,15.60
2018-09-03T11:04:39.179Z,12.80
2018-09-03T11:07:08.236Z,14.77
2018-09-03T11:09:36.865Z,15.17
2018-09-03T11:12:06.074Z,15.70
2018-09-03T11:14:34.457Z,15.60
2018-09-03T11:17:02.772Z,13.53
2018-09-03T11:19:33.446Z,12.50
2018-09-03T11:22:01.848Z,14.33
2018-09-03T11:24:30.153Z,15.13
2018-09-03T11:26:59.566Z,17.47
2018-09-03T11:29:28.061Z,19.90
2018-09-03T11:31:56.415Z,17.40
2018-09-03T11:34:24.775Z,17.00
2018-09-03T11:36:53.169Z,19.60
2018-09-03T11:39:21.658Z,19.47
2018-09-03T11:41:50.004Z,19.60
2018-09-03T11:44:18.510Z,19.00
2018-09-03T11:46:46.832Z,26.67
2018-09-03T11:49:15.305Z,18.80
2018-09-03T11:51:43.677Z,18.67
2018-09-03T11:54:11.726Z,19.30
2018-09-03T11:56:40.278Z,16.57
2018-09-03T11:59:08.739Z,20.70
2018-09-03T12:01:37.146Z,18.40
2018-09-03T12:04:05.805Z,16.03
2018-09-03T12:06:34.276Z,15.80
2018-09-03T12:09:02.752Z,17.67
2018-09-03T12:11:31.075Z,18.40
2018-09-03T12:14:00.543Z,17.40
2018-09-03T12:16:28.971Z,16.47
2018-09-03T12:18:58.695Z,18.40
2018-09-03T12:21:27.067Z,18.53
2018-09-03T12:23:55.354Z,19.80
2018-09-03T12:26:23.726Z,17.90
2018-09-03T12:28:52.187Z,19.93
2018-09-03T12:34:04.995Z,16.43
2018-09-03T12:36:33.214Z,21.33
2018-09-03T12:39:01.420Z,21.07
2018-09-03T12:41:29.754Z,22.50
2018-09-03T12:43:58.140Z,25.30
2018-09-03T12:46:26.389Z,18.77
2018-09-03T12:48:54.304Z,19.40
2018-09-03T12:51:22.565Z,24.83
2018-09-03T12:53:50.745Z,22.23
2018-09-03T12:56:19.074Z,25.33
2018-09-03T12:58:47.356Z,18.03
2018-09-03T13:01:15.571Z,16.93
2018-09-03T13:03:43.855Z,17.70
2018-09-03T13:06:12.196Z,19.60
2018-09-03T13:08:40.426Z,18.63
2018-09-03T13:11:08.714Z,22.87
2018-09-03T13:13:36.960Z,19.97
2018-09-03T13:16:05.225Z,17.13
2018-09-03T13:18:33.484Z,21.37
2018-09-03T13:21:01.764Z,15.70
2018-09-03T13:23:30.009Z,17.27
2018-09-03T13:25:58.232Z,15.93
2018-09-03T13:28:26.441Z,18.27
2018-09-03T13:30:54.695Z,18.23
2018-09-03T13:33:22.897Z,22.50
2018-09-03T13:35:51.182Z,18.10
2018-09-03T13:38:19.439Z,17.70
2018-09-03T13:40:47.642Z,18.50
2018-09-03T13:43:15.857Z,15.60
2018-09-03T13:45:44.134Z,15.67
2018-09-03T13:48:12.414Z,20.90
2018-09-03T13:50:40.588Z,18.30
2018-09-03T13:53:08.801Z,15.27
2018-09-03T13:55:37.039Z,14.80
2018-09-03T13:58:05.303Z,18.73
2018-09-03T14:00:33.502Z,17.70
2018-09-03T14:03:01.772Z,17.03
2018-09-03T14:05:30.039Z,13.93
2018-09-03T14:07:58.295Z,15.87
2018-09-03T14:10:26.589Z,17.97
2018-09-03T14:12:54.828Z,17.20
2018-09-03T14:15:23.016Z,15.73
2018-09-03T14:17:51.221Z,14.53
2018-09-03T14:20:19.420Z,14.43
2018-09-03T14:22:47.701Z,16.03
2018-09-03T14:25:15.902Z,17.33
2018-09-03T14:27:44.588Z,14.50
2018-09-03T14:30:12.814Z,14.70
2018-09-03T14:32:41.017Z,15.50
2018-09-03T14:35:09.255Z,12.67
2018-09-03T14:37:37.501Z,16.47
2018-09-03T14:40:05.766Z,12.93
2018-09-03T14:42:34.110Z,14.37
2018-09-03T14:45:02.335Z,12.87
2018-09-03T14:47:30.526Z,14.13
2018-09-03T14:49:58.772Z,11.90
2018-09-03T14:52:27.216Z,13.50
2018-09-03T14:54:55.404Z,11.33
2018-09-03T14:57:23.836Z,13.83
2018-09-03T14:59:52.154Z,13.33
2018-09-03T15:02:20.473Z,14.90
2018-09-03T15:04:48.958Z,15.23
2018-09-03T15:07:17.136Z,14.00
2018-09-03T15:09:45.444Z,16.40
2018-09-03T15:12:13.780Z,13.13
2018-09-03T15:14:42.076Z,17.53
2018-09-03T15:17:09.953Z,11.40
2018-09-03T15:19:38.134Z,11.23
2018-09-03T15:22:06.533Z,13.87
2018-09-03T15:24:34.718Z,12.93
2018-09-03T15:27:02.966Z,12.27
2018-09-03T15:29:33.204Z,12.10
2018-09-03T15:32:01.477Z,11.67
2018-09-03T15:34:29.437Z,12.30
2018-09-03T15:36:57.808Z,13.93
2018-09-03T15:39:26.127Z,16.83
2018-09-03T15:41:54.325Z,16.03
2018-09-03T15:44:22.545Z,14.67
2018-09-03T15:46:50.724Z,13.50
2018-09-03T15:49:18.931Z,12.30
2018-09-03T15:51:47.112Z,14.27
2018-09-03T15:54:15.349Z,13.60
2018-09-03T15:56:43.525Z,12.87
2018-09-03T15:59:11.764Z,15.13
2018-09-03T16:01:39.963Z,11.97
2018-09-03T16:04:08.149Z,16.07
2018-09-03T16:06:36.332Z,16.37
2018-09-03T16:09:07.802Z,10.47
2018-09-03T16:11:36.256Z,10.93
2018-09-03T16:14:05.032Z,14.60
2018-09-03T16:16:33.346Z,13.40
2018-09-03T16:19:01.605Z,14.70
2018-09-03T16:21:29.813Z,15.10
2018-09-03T16:23:58.108Z,11.93
2018-09-03T16:26:26.316Z,15.80
2018-09-03T16:28:54.532Z,14.17
2018-09-03T16:31:22.755Z,14.83
2018-09-03T16:33:50.983Z,15.00
2018-09-03T16:36:19.173Z,13.50
2018-09-03T16:38:47.528Z,12.87
2018-09-03T16:41:15.717Z,15.13
2018-09-03T16:43:43.943Z,13.87
2018-09-03T16:46:12.227Z,12.23
2018-09-03T16:48:40.443Z,14.87
2018-09-03T16:51:08.623Z,10.87
2018-09-03T16:53:37.054Z,14.27
2018-09-03T16:56:05.260Z,13.47
2018-09-03T16:58:33.476Z,12.63
2018-09-03T17:01:01.720Z,15.00
2018-09-03T17:03:30.029Z,18.40
2018-09-03T17:05:58.480Z,10.83
2018-09-03T17:08:26.701Z,12.80
2018-09-03T17:10:54.856Z,12.20
2018-09-03T17:13:23.099Z,10.60
2018-09-03T17:15:51.336Z,8.80
2018-09-03T17:18:19.512Z,12.00
2018-09-03T17:20:47.838Z,9.97
2018-09-03T17:23:16.031Z,13.20
2018-09-03T17:25:44.297Z,10.83
2018-09-03T17:28:12.468Z,14.30
2018-09-03T17:30:40.692Z,12.20
2018-09-03T17:33:08.902Z,13.07
2018-09-03T17:35:37.256Z,11.17
2018-09-03T17:38:05.535Z,13.00
2018-09-03T17:40:33.744Z,13.17
2018-09-03T17:43:02.024Z,10.30
2018-09-03T17:45:30.265Z,10.10
2018-09-03T17:47:58.571Z,10.80
2018-09-03T17:50:26.770Z,11.60
2018-09-03T17:52:54.942Z,11.40
2018-09-03T17:55:23.142Z,11.37
2018-09-03T17:57:51.356Z,10.40
2018-09-03T18:00:19.529Z,15.00
2018-09-03T18:02:47.742Z,14.27
2018-09-03T18:05:15.904Z,15.80
2018-09-03T18:07:44.117Z,8.57
2018-09-03T18:10:12.361Z,15.90
2018-09-03T18:12:40.561Z,11.17
2018-09-03T18:15:08.844Z,11.40
2018-09-03T18:17:37.186Z,13.17
2018-09-03T18:20:05.552Z,13.97
2018-09-03T18:22:33.723Z,13.50
2018-09-03T18:25:01.919Z,11.47
2018-09-03T18:27:30.156Z,11.90
2018-09-03T18:29:58.335Z,12.73
2018-09-03T18:32:26.515Z,11.60
2018-09-03T18:34:55.679Z,16.30
2018-09-03T18:37:23.864Z,9.40
2018-09-03T18:39:52.104Z,13.80
2018-09-03T18:42:20.312Z,11.40
2018-09-03T18:44:48.606Z,13.37
2018-09-03T18:47:16.901Z,12.60
2018-09-03T18:49:45.040Z,14.47
2018-09-03T18:52:13.423Z,12.33
2018-09-03T18:54:41.696Z,15.27
2018-09-03T18:57:09.939Z,13.73
2018-09-03T18:59:38.174Z,21.37
2018-09-03T19:02:06.385Z,15.03
2018-09-03T19:04:34.593Z,11.33
2018-09-03T19:07:02.785Z,12.37
2018-09-03T19:09:30.961Z,12.00
2018-09-03T19:11:59.661Z,16.30
2018-09-03T19:14:27.892Z,13.57
2018-09-03T19:16:56.116Z,16.10
2018-09-03T19:19:24.372Z,16.30
2018-09-03T19:21:52.558Z,15.90
2018-09-03T19:24:20.724Z,16.53
2018-09-03T19:26:48.977Z,17.23
2018-09-03T19:29:17.378Z,19.07
2018-09-03T19:31:45.616Z,18.00
2018-09-03T19:34:14.293Z,19.97
2018-09-03T19:36:42.633Z,19.33
2018-09-03T19:39:10.788Z,18.90
2018-09-03T19:41:39.140Z,19.13
2018-09-03T19:44:07.412Z,15.80
2018-09-03T19:46:35.627Z,21.43
2018-09-03T19:49:03.888Z,21.20
2018-09-03T19:51:32.463Z,27.73
2018-09-03T19:54:00.631Z,23.63
2018-09-03T19:56:28.847Z,19.80
2018-09-03T19:58:57.020Z,21.20
2018-09-03T20:01:25.228Z,22.50
2018-09-03T20:03:54.184Z,21.37
2018-09-03T20:06:22.378Z,22.40
2018-09-03T20:08:50.556Z,20.80
2018-09-03T20:11:18.776Z,34.63
2018-09-03T20:13:46.954Z,20.30
2018-09-03T20:16:15.158Z,22.00
2018-09-03T20:18:43.341Z,22.67
2018-09-03T20:21:11.544Z,27.07
2018-09-03T20:23:39.940Z,19.63
2018-09-03T20:26:08.074Z,27.43
2018-09-03T20:28:36.315Z,21.73
2018-09-03T20:31:04.474Z,22.87
2018-09-03T20:33:32.640Z,26.40
2018-09-03T20:36:00.844Z,32.13
2018-09-03T20:38:29.017Z,24.47
2018-09-03T20:40:57.215Z,24.70
2018-09-03T20:43:25.517Z,24.40
2018-09-03T20:45:53.706Z,18.93
2018-09-03T20:48:21.892Z,23.90
2018-09-03T20:50:50.146Z,24.80
2018-09-03T20:53:18.312Z,27.03
2018-09-03T20:55:46.505Z,27.33
2018-09-03T20:58:14.688Z,25.40
2018-09-03T21:00:43.005Z,21.73
2018-09-03T21:03:11.214Z,23.40
2018-09-03T21:05:39.542Z,26.10
2018-09-03T21:08:07.767Z,21.50
2018-09-03T21:10:36.961Z,29.27
2018-09-03T21:13:05.163Z,29.63
2018-09-03T21:15:33.406Z,36.80
2018-09-03T21:18:01.605Z,28.93
2018-09-03T21:20:29.824Z,27.23
2018-09-03T21:22:58.058Z,27.80
2018-09-03T21:25:26.232Z,26.60
2018-09-03T21:27:54.404Z,28.80
2018-09-03T21:30:22.646Z,26.93
2018-09-03T21:32:50.929Z,26.20
2018-09-03T21:35:19.115Z,29.77
2018-09-03T21:37:47.384Z,26.10
2018-09-03T21:40:15.549Z,27.40
2018-09-03T21:42:43.736Z,30.50
2018-09-03T21:45:11.912Z,34.60
2018-09-03T21:47:40.181Z,27.67
2018-09-03T21:50:08.483Z,27.70
2018-09-03T21:52:36.684Z,30.57
2018-09-03T21:55:04.911Z,27.40
2018-09-03T21:57:32.844Z,35.10
2018-09-03T22:00:01.080Z,33.33
2018-09-03T22:02:29.284Z,35.47
2018-09-03T22:04:57.471Z,29.47
2018-09-03T22:07:25.703Z,32.93
2018-09-03T22:09:54.003Z,25.30
2018-09-03T22:12:22.170Z,39.17
2018-09-03T22:14:50.436Z,28.13
2018-09-03T22:17:18.639Z,30.13
2018-09-03T22:19:46.900Z,32.60
2018-09-03T22:22:15.438Z,39.30
2018-09-03T22:24:43.907Z,30.87
2018-09-03T22:27:12.134Z,32.63
2018-09-03T22:29:40.459Z,29.33
2018-09-03T22:32:08.655Z,32.80
2018-09-03T22:34:36.905Z,36.50
2018-09-03T22:39:39.805Z,38.97
2018-09-03T22:42:08.079Z,33.77
2018-09-03T22:44:36.245Z,35.57
2018-09-03T22:47:04.463Z,28.90
2018-09-03T22:49:32.607Z,35.77
2018-09-03T22:52:00.788Z,36.67
2018-09-03T22:54:29.023Z,38.80
2018-09-03T22:56:57.225Z,37.00
2018-09-03T22:59:25.407Z,31.97
2018-09-03T23:01:53.610Z,37.07
2018-09-03T23:04:21.838Z,36.30
2018-09-03T23:06:50.125Z,33.73
2018-09-03T23:09:18.421Z,35.70
2018-09-03T23:11:46.596Z,35.87
2018-09-03T23:14:14.901Z,40.43
2018-09-03T23:16:43.089Z,42.57
2018-09-03T23:19:11.287Z,39.67
2018-09-03T23:21:39.492Z,38.37
2018-09-03T23:24:07.752Z,36.27
2018-09-03T23:26:35.911Z,36.17
2018-09-03T23:29:04.210Z,39.20
2018-09-03T23:31:32.479Z,39.10
2018-09-03T23:34:00.649Z,40.10
2018-09-03T23:36:28.849Z,41.73
2018-09-03T23:38:57.069Z,39.33
2018-09-03T23:41:25.276Z,38.10
2018-09-03T23:43:53.488Z,39.97
2018-09-03T23:46:21.692Z,39.60
2018-09-03T23:48:49.866Z,38.03
2018-09-03T23:51:18.173Z,35.83
2018-09-03T23:53:46.383Z,41.87
2018-09-03T23:56:14.557Z,38.40
2018-09-03T23:58:42.732Z,36.30
